sensor_id;sensor_type;location;lat;lon;timestamp;pressure;altitude;pressure_sealevel;temperature;humidity
61506;BME280;47366;51.916;4.574;2023-06-24T00:00:17;102507.25;;;20.29;55.25
61506;BME280;47366;51.916;4.574;2023-06-24T00:02:44;102508.22;;;20.28;54.92
61506;BME280;47366;51.916;4.574;2023-06-24T00:05:10;102515.44;;;20.18;55.33
61506;BME280;47366;51.916;4.574;2023-06-24T00:07:36;102519.97;;;20.19;55.32
61506;BME280;47366;51.916;4.574;2023-06-24T00:10:13;102507.19;;;20.18;55.58
61506;BME280;47366;51.916;4.574;2023-06-24T00:12:38;102513.44;;;20.20;55.53
61506;BME280;47366;51.916;4.574;2023-06-24T00:15:06;102505.28;;;20.19;55.78
61506;BME280;47366;51.916;4.574;2023-06-24T00:17:31;102509.41;;;20.13;56.08
61506;BME280;47366;51.916;4.574;2023-06-24T00:19:57;102523.06;;;20.14;56.21
61506;BME280;47366;51.916;4.574;2023-06-24T00:22:22;102522.53;;;20.09;56.40
61506;BME280;47366;51.916;4.574;2023-06-24T00:24:47;102517.47;;;20.03;56.58
61506;BME280;47366;51.916;4.574;2023-06-24T00:27:13;102517.81;;;19.99;56.69
61506;BME280;47366;51.916;4.574;2023-06-24T00:29:38;102518.06;;;19.96;56.94
61506;BME280;47366;51.916;4.574;2023-06-24T00:32:04;102520.03;;;19.93;57.13
61506;BME280;47366;51.916;4.574;2023-06-24T00:34:29;102530.38;;;19.90;57.48
61506;BME280;47366;51.916;4.574;2023-06-24T00:36:55;102532.50;;;19.86;57.80
61506;BME280;47366;51.916;4.574;2023-06-24T00:39:20;102522.59;;;19.84;57.99
61506;BME280;47366;51.916;4.574;2023-06-24T00:41:46;102518.88;;;19.72;58.49
61506;BME280;47366;51.916;4.574;2023-06-24T00:44:11;102521.75;;;19.70;58.32
61506;BME280;47366;51.916;4.574;2023-06-24T00:46:37;102516.00;;;19.61;58.66
61506;BME280;47366;51.916;4.574;2023-06-24T00:49:05;102515.47;;;19.56;58.58
61506;BME280;47366;51.916;4.574;2023-06-24T00:51:30;102519.97;;;19.57;58.83
61506;BME280;47366;51.916;4.574;2023-06-24T00:53:57;102525.16;;;19.48;59.24
61506;BME280;47366;51.916;4.574;2023-06-24T00:56:27;102529.88;;;19.46;59.63
61506;BME280;47366;51.916;4.574;2023-06-24T00:58:54;102508.69;;;19.36;59.41
61506;BME280;47366;51.916;4.574;2023-06-24T01:01:20;102518.25;;;19.43;59.83
61506;BME280;47366;51.916;4.574;2023-06-24T01:03:46;102512.31;;;19.36;59.61
61506;BME280;47366;51.916;4.574;2023-06-24T01:06:13;102519.44;;;19.39;60.05
61506;BME280;47366;51.916;4.574;2023-06-24T01:08:38;102513.59;;;19.30;60.29
61506;BME280;47366;51.916;4.574;2023-06-24T01:11:04;102504.19;;;19.22;60.34
61506;BME280;47366;51.916;4.574;2023-06-24T01:13:29;102510.22;;;19.27;60.65
61506;BME280;47366;51.916;4.574;2023-06-24T01:15:58;102508.47;;;19.26;60.33
61506;BME280;47366;51.916;4.574;2023-06-24T01:18:46;102508.47;;;19.26;61.29
61506;BME280;47366;51.916;4.574;2023-06-24T01:21:31;102513.06;;;19.25;60.97
61506;BME280;47366;51.916;4.574;2023-06-24T01:27:14;102500.66;;;19.20;62.18
61506;BME280;47366;51.916;4.574;2023-06-24T01:32:45;102488.25;;;19.14;61.92
61506;BME280;47366;51.916;4.574;2023-06-24T01:35:21;102491.31;;;19.09;62.45
61506;BME280;47366;51.916;4.574;2023-06-24T01:37:51;102483.59;;;19.02;62.71
61506;BME280;47366;51.916;4.574;2023-06-24T01:40:28;102492.84;;;19.01;63.17
61506;BME280;47366;51.916;4.574;2023-06-24T01:43:00;102498.34;;;19.01;62.83
61506;BME280;47366;51.916;4.574;2023-06-24T01:45:28;102493.84;;;19.00;62.35
61506;BME280;47366;51.916;4.574;2023-06-24T01:48:01;102491.19;;;18.98;63.49
61506;BME280;47366;51.916;4.574;2023-06-24T01:50:30;102487.78;;;18.95;63.37
61506;BME280;47366;51.916;4.574;2023-06-24T01:52:57;102480.53;;;18.94;63.19
61506;BME280;47366;51.916;4.574;2023-06-24T01:55:24;102486.03;;;18.94;63.03
61506;BME280;47366;51.916;4.574;2023-06-24T01:57:50;102491.44;;;18.95;63.28
61506;BME280;47366;51.916;4.574;2023-06-24T02:00:17;102487.78;;;18.95;63.68
61506;BME280;47366;51.916;4.574;2023-06-24T02:02:44;102497.13;;;18.92;64.07
61506;BME280;47366;51.916;4.574;2023-06-24T02:05:10;102475.69;;;18.84;64.16
61506;BME280;47366;51.916;4.574;2023-06-24T02:07:37;102478.53;;;18.83;63.98
61506;BME280;47366;51.916;4.574;2023-06-24T02:10:04;102480.53;;;18.81;63.99
61506;BME280;47366;51.916;4.574;2023-06-24T02:12:31;102482.28;;;18.82;64.36
61506;BME280;47366;51.916;4.574;2023-06-24T02:14:58;102476.69;;;18.83;64.38
61506;BME280;47366;51.916;4.574;2023-06-24T02:17:24;102473.28;;;18.80;64.63
61506;BME280;47366;51.916;4.574;2023-06-24T02:19:55;102490.44;;;18.83;64.45
61506;BME280;47366;51.916;4.574;2023-06-24T02:22:21;102477.13;;;18.77;65.22
61506;BME280;47366;51.916;4.574;2023-06-24T02:24:48;102485.25;;;18.79;64.37
61506;BME280;47366;51.916;4.574;2023-06-24T02:27:14;102480.63;;;18.79;64.48
61506;BME280;47366;51.916;4.574;2023-06-24T02:29:40;102478.66;;;18.81;64.56
61506;BME280;47366;51.916;4.574;2023-06-24T02:32:07;102475.25;;;18.78;64.93
61506;BME280;47366;51.916;4.574;2023-06-24T02:34:33;102474.56;;;18.74;65.57
61506;BME280;47366;51.916;4.574;2023-06-24T02:36:58;102477.53;;;18.71;65.68
61506;BME280;47366;51.916;4.574;2023-06-24T02:39:24;102478.72;;;18.67;65.29
61506;BME280;47366;51.916;4.574;2023-06-24T02:41:49;102465.31;;;18.62;65.83
61506;BME280;47366;51.916;4.574;2023-06-24T02:44:15;102466.19;;;18.63;66.08
61506;BME280;47366;51.916;4.574;2023-06-24T02:46:42;102465.53;;;18.59;66.35
61506;BME280;47366;51.916;4.574;2023-06-24T02:49:10;102480.69;;;18.65;66.96
61506;BME280;47366;51.916;4.574;2023-06-24T02:51:38;102467.28;;;18.60;66.18
61506;BME280;47366;51.916;4.574;2023-06-24T02:54:05;102466.50;;;18.58;66.89
61506;BME280;47366;51.916;4.574;2023-06-24T02:56:31;102470.25;;;18.57;66.93
61506;BME280;47366;51.916;4.574;2023-06-24T02:58:57;102472.13;;;18.57;66.56
61506;BME280;47366;51.916;4.574;2023-06-24T03:01:23;102463.00;;;18.56;66.84
61506;BME280;47366;51.916;4.574;2023-06-24T03:03:54;102469.03;;;18.61;66.48
61506;BME280;47366;51.916;4.574;2023-06-24T03:06:20;102468.84;;;18.64;66.97
61506;BME280;47366;51.916;4.574;2023-06-24T03:08:48;102467.19;;;18.62;66.64
61506;BME280;47366;51.916;4.574;2023-06-24T03:11:14;102455.66;;;18.57;67.58
61506;BME280;47366;51.916;4.574;2023-06-24T03:13:39;102460.81;;;18.61;67.14
61506;BME280;47366;51.916;4.574;2023-06-24T03:16:05;102459.06;;;18.60;67.73
61506;BME280;47366;51.916;4.574;2023-06-24T03:18:30;102472.69;;;18.62;66.83
61506;BME280;47366;51.916;4.574;2023-06-24T03:20:56;102456.63;;;18.56;66.76
61506;BME280;47366;51.916;4.574;2023-06-24T03:23:21;102464.00;;;18.55;67.23
61506;BME280;47366;51.916;4.574;2023-06-24T03:25:47;102455.75;;;18.55;67.76
61506;BME280;47366;51.916;4.574;2023-06-24T03:28:12;102460.38;;;18.55;67.36
61506;BME280;47366;51.916;4.574;2023-06-24T03:30:37;102453.44;;;18.49;67.41
61506;BME280;47366;51.916;4.574;2023-06-24T03:33:03;102452.47;;;18.50;67.07
61506;BME280;47366;51.916;4.574;2023-06-24T03:35:28;102456.94;;;18.51;67.27
61506;BME280;47366;51.916;4.574;2023-06-24T03:37:55;102464.88;;;18.56;66.89
61506;BME280;47366;51.916;4.574;2023-06-24T03:40:20;102475.06;;;18.54;67.32
61506;BME280;47366;51.916;4.574;2023-06-24T03:42:46;102470.66;;;18.51;67.19
61506;BME280;47366;51.916;4.574;2023-06-24T03:45:11;102471.75;;;18.49;67.10
61506;BME280;47366;51.916;4.574;2023-06-24T03:47:36;102469.88;;;18.49;67.63
61506;BME280;47366;51.916;4.574;2023-06-24T03:50:04;102470.03;;;18.48;67.92
61506;BME280;47366;51.916;4.574;2023-06-24T03:52:29;102469.88;;;18.49;66.70
61506;BME280;47366;51.916;4.574;2023-06-24T03:54:55;102464.53;;;18.48;67.77
61506;BME280;47366;51.916;4.574;2023-06-24T03:57:20;102472.84;;;18.46;68.26
61506;BME280;47366;51.916;4.574;2023-06-24T03:59:46;102476.28;;;18.50;67.24
61506;BME280;47366;51.916;4.574;2023-06-24T04:02:11;102476.38;;;18.48;66.91
61506;BME280;47366;51.916;4.574;2023-06-24T04:04:39;102467.38;;;18.46;66.89
61506;BME280;47366;51.916;4.574;2023-06-24T04:07:04;102479.13;;;18.48;66.73
61506;BME280;47366;51.916;4.574;2023-06-24T04:09:34;102476.38;;;18.48;67.81
61506;BME280;47366;51.916;4.574;2023-06-24T04:12:00;102468.25;;;18.46;67.66
61506;BME280;47366;51.916;4.574;2023-06-24T04:14:26;102459.69;;;18.38;66.67
61506;BME280;47366;51.916;4.574;2023-06-24T04:16:51;102465.03;;;18.40;67.06
61506;BME280;47366;51.916;4.574;2023-06-24T04:19:16;102475.03;;;18.41;66.71
61506;BME280;47366;51.916;4.574;2023-06-24T04:21:42;102476.00;;;18.40;67.00
61506;BME280;47366;51.916;4.574;2023-06-24T04:24:07;102487.56;;;18.45;66.66
61506;BME280;47366;51.916;4.574;2023-06-24T04:26:32;102480.31;;;18.44;67.47
61506;BME280;47366;51.916;4.574;2023-06-24T04:28:58;102469.47;;;18.42;66.76
61506;BME280;47366;51.916;4.574;2023-06-24T04:31:23;102484.50;;;18.50;66.68
61506;BME280;47366;51.916;4.574;2023-06-24T04:33:49;102481.88;;;18.48;67.08
61506;BME280;47366;51.916;4.574;2023-06-24T04:36:14;102490.75;;;18.52;66.44
61506;BME280;47366;51.916;4.574;2023-06-24T04:38:40;102495.28;;;18.53;66.06
61506;BME280;47366;51.916;4.574;2023-06-24T04:41:05;102477.25;;;18.49;66.25
61506;BME280;47366;51.916;4.574;2023-06-24T04:43:30;102486.91;;;18.54;66.41
61506;BME280;47366;51.916;4.574;2023-06-24T04:45:56;102500.97;;;18.50;66.85
61506;BME280;47366;51.916;4.574;2023-06-24T04:48:26;102495.59;;;18.48;67.00
61506;BME280;47366;51.916;4.574;2023-06-24T04:50:51;102498.03;;;18.53;66.56
61506;BME280;47366;51.916;4.574;2023-06-24T04:53:18;102491.66;;;18.52;66.85
61506;BME280;47366;51.916;4.574;2023-06-24T04:55:44;102503.97;;;18.59;67.35
61506;BME280;47366;51.916;4.574;2023-06-24T04:58:09;102492.41;;;18.54;66.00
61506;BME280;47366;51.916;4.574;2023-06-24T05:00:34;102501.41;;;18.56;66.34
61506;BME280;47366;51.916;4.574;2023-06-24T05:03:00;102491.53;;;18.54;66.16
61506;BME280;47366;51.916;4.574;2023-06-24T05:05:25;102489.34;;;18.59;66.02
61506;BME280;47366;51.916;4.574;2023-06-24T05:07:50;102507.47;;;18.61;66.05
61506;BME280;47366;51.916;4.574;2023-06-24T05:10:16;102500.22;;;18.60;66.33
61506;BME280;47366;51.916;4.574;2023-06-24T05:12:41;102509.34;;;18.61;67.01
61506;BME280;47366;51.916;4.574;2023-06-24T05:15:07;102511.19;;;18.60;67.92
61506;BME280;47366;51.916;4.574;2023-06-24T05:17:32;102503.84;;;18.61;66.64
61506;BME280;47366;51.916;4.574;2023-06-24T05:19:58;102509.16;;;18.64;66.42
61506;BME280;47366;51.916;4.574;2023-06-24T05:22:23;102509.47;;;18.72;66.52
61506;BME280;47366;51.916;4.574;2023-06-24T05:24:49;102498.41;;;18.74;66.46
61506;BME280;47366;51.916;4.574;2023-06-24T05:27:14;102499.94;;;18.78;66.87
61506;BME280;47366;51.916;4.574;2023-06-24T05:29:39;102510.53;;;18.84;66.84
61506;BME280;47366;51.916;4.574;2023-06-24T05:32:05;102506.00;;;18.83;67.01
61506;BME280;47366;51.916;4.574;2023-06-24T05:34:31;102501.28;;;18.85;66.44
61506;BME280;47366;51.916;4.574;2023-06-24T05:36:56;102513.50;;;18.94;67.39
61506;BME280;47366;51.916;4.574;2023-06-24T05:39:22;102513.19;;;18.98;67.68
61506;BME280;47366;51.916;4.574;2023-06-24T05:41:47;102509.66;;;18.96;67.42
61506;BME280;47366;51.916;4.574;2023-06-24T05:44:14;102507.03;;;19.07;66.94
61506;BME280;47366;51.916;4.574;2023-06-24T05:46:39;102515.72;;;19.14;66.88
61506;BME280;47366;51.916;4.574;2023-06-24T05:49:05;102509.44;;;19.25;66.54
61506;BME280;47366;51.916;4.574;2023-06-24T05:51:30;102504.28;;;19.33;66.29
61506;BME280;47366;51.916;4.574;2023-06-24T05:53:56;102513.38;;;19.46;65.92
61506;BME280;47366;51.916;4.574;2023-06-24T05:56:21;102509.53;;;19.49;66.53
61506;BME280;47366;51.916;4.574;2023-06-24T05:58:48;102509.75;;;19.59;66.02
61506;BME280;47366;51.916;4.574;2023-06-24T06:01:13;102513.78;;;19.66;66.58
61506;BME280;47366;51.916;4.574;2023-06-24T06:03:39;102519.53;;;19.76;65.75
61506;BME280;47366;51.916;4.574;2023-06-24T06:06:04;102514.44;;;19.82;65.79
61506;BME280;47366;51.916;4.574;2023-06-24T06:08:30;102524.34;;;19.98;65.93
61506;BME280;47366;51.916;4.574;2023-06-24T06:10:56;102522.63;;;20.08;66.61
61506;BME280;47366;51.916;4.574;2023-06-24T06:13:21;102515.69;;;20.15;65.87
61506;BME280;47366;51.916;4.574;2023-06-24T06:15:47;102522.88;;;20.29;65.28
61506;BME280;47366;51.916;4.574;2023-06-24T06:18:12;102520.91;;;20.31;65.48
61506;BME280;47366;51.916;4.574;2023-06-24T06:20:37;102513.78;;;20.40;65.19
61506;BME280;47366;51.916;4.574;2023-06-24T06:23:03;102520.47;;;20.48;65.15
61506;BME280;47366;51.916;4.574;2023-06-24T06:25:28;102510.78;;;20.55;65.55
61506;BME280;47366;51.916;4.574;2023-06-24T06:27:54;102508.53;;;20.61;64.75
61506;BME280;47366;51.916;4.574;2023-06-24T06:30:19;102521.72;;;20.68;64.52
61506;BME280;47366;51.916;4.574;2023-06-24T06:32:44;102528.91;;;20.82;64.17
61506;BME280;47366;51.916;4.574;2023-06-24T06:35:10;102536.19;;;20.94;65.00
61506;BME280;47366;51.916;4.574;2023-06-24T06:37:35;102534.59;;;21.03;64.09
61506;BME280;47366;51.916;4.574;2023-06-24T06:40:01;102534.00;;;21.22;63.75
61506;BME280;47366;51.916;4.574;2023-06-24T06:42:28;102531.50;;;21.30;63.46
61506;BME280;47366;51.916;4.574;2023-06-24T06:44:54;102531.50;;;21.30;63.57
61506;BME280;47366;51.916;4.574;2023-06-24T06:47:19;102529.69;;;21.42;63.74
61506;BME280;47366;51.916;4.574;2023-06-24T06:49:44;102527.19;;;21.50;63.08
61506;BME280;47366;51.916;4.574;2023-06-24T06:52:10;102524.78;;;21.57;62.87
61506;BME280;47366;51.916;4.574;2023-06-24T06:54:35;102535.22;;;21.65;63.37
61506;BME280;47366;51.916;4.574;2023-06-24T06:57:04;102529.31;;;21.69;63.29
61506;BME280;47366;51.916;4.574;2023-06-24T06:59:33;102521.53;;;21.74;62.70
61506;BME280;47366;51.916;4.574;2023-06-24T07:01:59;102521.38;;;21.87;63.21
61506;BME280;47366;51.916;4.574;2023-06-24T07:04:24;102534.16;;;21.99;62.97
61506;BME280;47366;51.916;4.574;2023-06-24T07:06:49;102530.25;;;22.13;62.51
61506;BME280;47366;51.916;4.574;2023-06-24T07:09:15;102529.88;;;22.18;62.25
61506;BME280;47366;51.916;4.574;2023-06-24T07:11:41;102523.31;;;22.19;62.67
61506;BME280;47366;51.916;4.574;2023-06-24T07:14:07;102523.31;;;22.19;61.76
61506;BME280;47366;51.916;4.574;2023-06-24T07:16:32;102525.09;;;22.20;61.85
61506;BME280;47366;51.916;4.574;2023-06-24T07:18:57;102519.69;;;22.18;62.54
61506;BME280;47366;51.916;4.574;2023-06-24T07:21:23;102531.22;;;22.35;62.01
61506;BME280;47366;51.916;4.574;2023-06-24T07:23:48;102519.00;;;22.48;61.90
61506;BME280;47366;51.916;4.574;2023-06-24T07:26:13;102517.88;;;22.51;61.15
61506;BME280;47366;51.916;4.574;2023-06-24T07:28:39;102523.19;;;22.64;61.64
61506;BME280;47366;51.916;4.574;2023-06-24T07:31:04;102524.66;;;22.79;60.98
61506;BME280;47366;51.916;4.574;2023-06-24T07:33:30;102516.78;;;22.96;60.94
61506;BME280;47366;51.916;4.574;2023-06-24T07:35:56;102528.59;;;22.98;60.81
61506;BME280;47366;51.916;4.574;2023-06-24T07:38:21;102525.41;;;23.02;61.15
61506;BME280;47366;51.916;4.574;2023-06-24T07:40:47;102532.84;;;23.23;60.53
61506;BME280;47366;51.916;4.574;2023-06-24T07:43:12;102529.84;;;23.36;60.45
61506;BME280;47366;51.916;4.574;2023-06-24T07:45:38;102531.19;;;23.41;59.54
61506;BME280;47366;51.916;4.574;2023-06-24T07:48:03;102533.22;;;23.39;59.28
61506;BME280;47366;51.916;4.574;2023-06-24T07:50:30;102524.97;;;23.49;59.46
61506;BME280;47366;51.916;4.574;2023-06-24T07:52:56;102536.41;;;23.65;59.12
61506;BME280;47366;51.916;4.574;2023-06-24T07:55:21;102519.00;;;23.74;59.04
61506;BME280;47366;51.916;4.574;2023-06-24T07:57:47;102528.09;;;23.65;58.57
61506;BME280;47366;51.916;4.574;2023-06-24T08:00:13;102534.19;;;23.59;57.17
61506;BME280;47366;51.916;4.574;2023-06-24T08:02:40;102536.53;;;23.64;58.05
61506;BME280;47366;51.916;4.574;2023-06-24T08:05:06;102534.28;;;23.79;58.33
61506;BME280;47366;51.916;4.574;2023-06-24T08:07:31;102526.34;;;23.95;57.74
61506;BME280;47366;51.916;4.574;2023-06-24T08:09:56;102522.59;;;24.06;58.07
61506;BME280;47366;51.916;4.574;2023-06-24T08:12:22;102525.81;;;24.11;57.75
61506;BME280;47366;51.916;4.574;2023-06-24T08:14:47;102525.53;;;24.24;57.69
61506;BME280;47366;51.916;4.574;2023-06-24T08:17:12;102525.59;;;24.43;57.11
61506;BME280;47366;51.916;4.574;2023-06-24T08:19:38;102515.53;;;24.52;57.16
61506;BME280;47366;51.916;4.574;2023-06-24T08:22:04;102531.28;;;24.71;57.08
61506;BME280;47366;51.916;4.574;2023-06-24T08:24:29;102530.13;;;24.83;57.00
61506;BME280;47366;51.916;4.574;2023-06-24T08:26:54;102523.84;;;24.91;57.05
61506;BME280;47366;51.916;4.574;2023-06-24T08:29:20;102526.16;;;25.05;57.24
61506;BME280;47366;51.916;4.574;2023-06-24T08:31:45;102535.47;;;25.14;56.37
61506;BME280;47366;51.916;4.574;2023-06-24T08:34:10;102521.78;;;25.22;56.61
61506;BME280;47366;51.916;4.574;2023-06-24T08:36:36;102522.16;;;25.37;56.05
61506;BME280;47366;51.916;4.574;2023-06-24T08:39:02;102523.63;;;25.41;56.05
61506;BME280;47366;51.916;4.574;2023-06-24T08:41:29;102526.91;;;25.54;55.71
61506;BME280;47366;51.916;4.574;2023-06-24T08:43:54;102531.19;;;25.49;56.21
61506;BME280;47366;51.916;4.574;2023-06-24T08:46:20;102529.56;;;25.56;55.83
61506;BME280;47366;51.916;4.574;2023-06-24T08:48:48;102525.13;;;25.63;56.06
61506;BME280;47366;51.916;4.574;2023-06-24T08:51:15;102523.31;;;25.81;55.77
61506;BME280;47366;51.916;4.574;2023-06-24T08:53:43;102525.88;;;25.93;55.71
61506;BME280;47366;51.916;4.574;2023-06-24T08:56:09;102518.09;;;26.06;55.34
61506;BME280;47366;51.916;4.574;2023-06-24T08:58:35;102515.25;;;26.16;55.05
61506;BME280;47366;51.916;4.574;2023-06-24T09:01:01;102509.63;;;26.25;55.70
61506;BME280;47366;51.916;4.574;2023-06-24T09:03:27;102512.88;;;26.39;54.52
61506;BME280;47366;51.916;4.574;2023-06-24T09:05:52;102520.25;;;26.48;54.67
61506;BME280;47366;51.916;4.574;2023-06-24T09:08:18;102515.84;;;26.55;54.34
61506;BME280;47366;51.916;4.574;2023-06-24T09:10:43;102510.75;;;26.68;54.02
61506;BME280;47366;51.916;4.574;2023-06-24T09:13:08;102514.16;;;26.80;53.85
61506;BME280;47366;51.916;4.574;2023-06-24T09:15:35;102503.63;;;26.66;52.93
61506;BME280;47366;51.916;4.574;2023-06-24T09:18:01;102508.69;;;26.71;53.61
61506;BME280;47366;51.916;4.574;2023-06-24T09:20:28;102503.13;;;26.71;53.79
61506;BME280;47366;51.916;4.574;2023-06-24T09:23:02;102516.94;;;26.62;53.69
61506;BME280;47366;51.916;4.574;2023-06-24T09:25:28;102515.34;;;26.78;53.34
61506;BME280;47366;51.916;4.574;2023-06-24T09:27:54;102509.38;;;26.90;53.34
61506;BME280;47366;51.916;4.574;2023-06-24T09:30:24;102513.06;;;26.91;52.80
61506;BME280;47366;51.916;4.574;2023-06-24T09:32:50;102514.63;;;26.94;53.09
61506;BME280;47366;51.916;4.574;2023-06-24T09:35:22;102506.81;;;26.97;52.84
61506;BME280;47366;51.916;4.574;2023-06-24T09:37:55;102509.59;;;26.97;51.56
61506;BME280;47366;51.916;4.574;2023-06-24T09:40:21;102501.00;;;27.08;52.49
61506;BME280;47366;51.916;4.574;2023-06-24T09:42:57;102493.09;;;27.22;52.23
61506;BME280;47366;51.916;4.574;2023-06-24T09:45:27;102496.19;;;27.37;52.02
61506;BME280;47366;51.916;4.574;2023-06-24T09:47:54;102508.78;;;27.57;51.79
61506;BME280;47366;51.916;4.574;2023-06-24T09:50:20;102499.16;;;27.43;51.80
61506;BME280;47366;51.916;4.574;2023-06-24T09:52:46;102502.00;;;27.51;51.69
61506;BME280;47366;51.916;4.574;2023-06-24T09:55:13;102506.06;;;27.65;51.98
61506;BME280;47366;51.916;4.574;2023-06-24T09:57:42;102490.59;;;27.71;52.16
61506;BME280;47366;51.916;4.574;2023-06-24T10:00:09;102503.16;;;27.75;50.73
61506;BME280;47366;51.916;4.574;2023-06-24T10:02:35;102494.56;;;27.60;50.97
61506;BME280;47366;51.916;4.574;2023-06-24T10:05:01;102503.41;;;27.56;50.65
61506;BME280;47366;51.916;4.574;2023-06-24T10:07:28;102492.97;;;27.58;50.55
61506;BME280;47366;51.916;4.574;2023-06-24T10:09:54;102493.00;;;27.66;50.93
61506;BME280;47366;51.916;4.574;2023-06-24T10:12:20;102501.13;;;27.85;50.59
61506;BME280;47366;51.916;4.574;2023-06-24T10:14:45;102502.75;;;28.04;50.46
61506;BME280;47366;51.916;4.574;2023-06-24T10:17:11;102491.31;;;28.15;50.19
61506;BME280;47366;51.916;4.574;2023-06-24T10:19:38;102495.31;;;28.21;49.66
61506;BME280;47366;51.916;4.574;2023-06-24T10:22:07;102501.03;;;28.20;48.99
61506;BME280;47366;51.916;4.574;2023-06-24T10:24:34;102491.50;;;28.30;49.07
61506;BME280;47366;51.916;4.574;2023-06-24T10:27:05;102488.72;;;28.38;48.34
61506;BME280;47366;51.916;4.574;2023-06-24T10:29:37;102500.25;;;28.44;48.98
61506;BME280;47366;51.916;4.574;2023-06-24T10:32:06;102498.53;;;28.59;49.22
61506;BME280;47366;51.916;4.574;2023-06-24T10:47:27;102481.28;;;28.80;48.14
61506;BME280;47366;51.916;4.574;2023-06-24T10:49:52;102477.63;;;28.79;47.98
61506;BME280;47366;51.916;4.574;2023-06-24T10:52:19;102472.56;;;28.67;47.83
61506;BME280;47366;51.916;4.574;2023-06-24T10:54:46;102473.44;;;28.75;47.71
61506;BME280;47366;51.916;4.574;2023-06-24T10:57:12;102476.41;;;28.74;47.69
61506;BME280;47366;51.916;4.574;2023-06-24T10:59:41;102464.38;;;28.65;46.61
61506;BME280;47366;51.916;4.574;2023-06-24T11:02:08;102462.28;;;28.59;46.77
61506;BME280;47366;51.916;4.574;2023-06-24T11:04:56;102471.16;;;28.79;46.47
61506;BME280;47366;51.916;4.574;2023-06-24T11:07:27;102448.50;;;28.98;46.78
61506;BME280;47366;51.916;4.574;2023-06-24T11:09:58;102467.78;;;29.25;45.71
61506;BME280;47366;51.916;4.574;2023-06-24T11:12:34;102463.31;;;28.99;44.79
61506;BME280;47366;51.916;4.574;2023-06-24T11:15:02;102466.09;;;29.07;46.88
61506;BME280;47366;51.916;4.574;2023-06-24T11:17:28;102456.63;;;29.25;46.57
61506;BME280;47366;51.916;4.574;2023-06-24T11:19:55;102451.53;;;29.45;46.40
61506;BME280;47366;51.916;4.574;2023-06-24T11:22:22;102463.72;;;29.43;46.03
61506;BME280;47366;51.916;4.574;2023-06-24T11:24:47;102455.28;;;29.60;46.11
61506;BME280;47366;51.916;4.574;2023-06-24T11:27:13;102471.59;;;29.40;44.19
61506;BME280;47366;51.916;4.574;2023-06-24T11:29:38;102458.56;;;29.24;45.27
61506;BME280;47366;51.916;4.574;2023-06-24T11:32:07;102450.56;;;29.21;44.51
61506;BME280;47366;51.916;4.574;2023-06-24T11:34:33;102454.31;;;29.45;45.68
61506;BME280;47366;51.916;4.574;2023-06-24T11:36:58;102446.25;;;29.50;44.07
61506;BME280;47366;51.916;4.574;2023-06-24T11:39:25;102451.75;;;29.35;43.62
61506;BME280;47366;51.916;4.574;2023-06-24T11:41:51;102449.81;;;29.35;45.43
61506;BME280;47366;51.916;4.574;2023-06-24T11:44:21;102430.25;;;29.35;43.89
61506;BME280;47366;51.916;4.574;2023-06-24T11:46:48;102435.47;;;29.38;44.79
61506;BME280;47366;51.916;4.574;2023-06-24T11:49:14;102432.69;;;29.38;44.91
61506;BME280;47366;51.916;4.574;2023-06-24T11:51:49;102436.28;;;29.55;44.18
61506;BME280;47366;51.916;4.574;2023-06-24T11:54:16;102429.13;;;29.53;44.11
61506;BME280;47366;51.916;4.574;2023-06-24T11:56:43;102429.72;;;29.40;43.64
61506;BME280;47366;51.916;4.574;2023-06-24T11:59:17;102425.31;;;29.54;43.99
61506;BME280;47366;51.916;4.574;2023-06-24T12:01:44;102417.00;;;29.77;44.25
61506;BME280;47366;51.916;4.574;2023-06-24T12:04:13;102419.25;;;29.81;44.19
61506;BME280;47366;51.916;4.574;2023-06-24T12:06:43;102419.69;;;29.93;44.60
61506;BME280;47366;51.916;4.574;2023-06-24T12:09:09;102404.69;;;29.94;43.52
61506;BME280;47366;51.916;4.574;2023-06-24T12:11:34;102400.81;;;29.95;43.79
61506;BME280;47366;51.916;4.574;2023-06-24T12:14:00;102410.19;;;30.02;43.26
61506;BME280;47366;51.916;4.574;2023-06-24T12:16:25;102402.44;;;30.13;44.16
61506;BME280;47366;51.916;4.574;2023-06-24T12:18:52;102405.66;;;30.24;44.49
61506;BME280;47366;51.916;4.574;2023-06-24T12:21:17;102410.16;;;30.34;42.03
61506;BME280;47366;51.916;4.574;2023-06-24T12:23:43;102401.78;;;30.11;42.14
61506;BME280;47366;51.916;4.574;2023-06-24T12:26:09;102405.69;;;30.01;43.59
61506;BME280;47366;51.916;4.574;2023-06-24T12:28:34;102408.03;;;29.90;44.15
61506;BME280;47366;51.916;4.574;2023-06-24T12:31:00;102393.59;;;30.01;45.31
61506;BME280;47366;51.916;4.574;2023-06-24T12:33:25;102405.88;;;30.23;43.72
61506;BME280;47366;51.916;4.574;2023-06-24T12:35:50;102398.72;;;30.20;43.71
61506;BME280;47366;51.916;4.574;2023-06-24T12:38:16;102401.66;;;30.27;43.25
61506;BME280;47366;51.916;4.574;2023-06-24T12:40:42;102396.06;;;30.27;43.40
61506;BME280;47366;51.916;4.574;2023-06-24T12:43:07;102383.56;;;30.15;42.76
61506;BME280;47366;51.916;4.574;2023-06-24T12:45:33;102398.19;;;30.25;43.54
61506;BME280;47366;51.916;4.574;2023-06-24T12:47:58;102394.47;;;30.24;43.59
61506;BME280;47366;51.916;4.574;2023-06-24T12:50:25;102392.06;;;30.30;44.31
61506;BME280;47366;51.916;4.574;2023-06-24T12:52:50;102383.41;;;30.39;43.64
61506;BME280;47366;51.916;4.574;2023-06-24T12:55:15;102394.19;;;30.42;43.44
61506;BME280;47366;51.916;4.574;2023-06-24T12:57:41;102399.09;;;30.40;43.07
61506;BME280;47366;51.916;4.574;2023-06-24T13:00:06;102393.50;;;30.17;42.81
61506;BME280;47366;51.916;4.574;2023-06-24T13:02:33;102385.47;;;29.91;41.54
61506;BME280;47366;51.916;4.574;2023-06-24T13:04:58;102388.50;;;29.81;42.32